createdAt,value
2023-02-07T00:01:46.394Z,1.50
2023-02-07T00:06:51.696Z,2.65
2023-02-07T00:11:55.296Z,2.40
2023-02-07T00:16:58.928Z,3.72
2023-02-07T00:22:04.199Z,2.83
2023-02-07T00:27:07.885Z,2.67
2023-02-07T00:32:11.603Z,3.35
2023-02-07T00:42:21.881Z,2.63
2023-02-07T00:47:25.548Z,4.07
2023-02-07T00:52:30.818Z,1.17
2023-02-07T00:57:34.642Z,2.08
2023-02-07T01:02:38.255Z,3.20
2023-02-07T01:07:43.541Z,1.40
2023-02-07T01:12:47.192Z,1.17
2023-02-07T01:17:50.961Z,1.48
2023-02-07T01:22:56.279Z,1.60
2023-02-07T01:27:59.963Z,3.47
2023-02-07T01:33:03.641Z,2.47
2023-02-07T01:38:08.947Z,2.08
2023-02-07T01:43:18.193Z,4.15
2023-02-07T01:48:24.600Z,3.72
2023-02-07T01:53:31.731Z,1.55
2023-02-07T01:58:36.126Z,4.32
2023-02-07T02:03:43.707Z,6.25
2023-02-07T02:08:48.999Z,5.53
2023-02-07T02:14:01.902Z,3.87
2023-02-07T02:19:35.659Z,6.28
2023-02-07T02:25:14.678Z,5.45
2023-02-07T02:30:53.334Z,4.53
2023-02-07T02:36:09.808Z,8.55
2023-02-07T02:41:16.365Z,5.80
2023-02-07T02:46:22.583Z,7.30
2023-02-07T02:51:29.888Z,6.53
2023-02-07T02:57:07.019Z,4.47
2023-02-07T03:02:23.707Z,8.95
2023-02-07T03:07:44.960Z,4.60
2023-02-07T03:12:56.412Z,4.97
2023-02-07T03:18:05.210Z,4.15
2023-02-07T03:23:12.552Z,10.25
2023-02-07T03:28:19.334Z,8.02
2023-02-07T03:33:24.787Z,5.80
2023-02-07T03:38:30.700Z,14.70
2023-02-07T03:43:35.952Z,5.75
2023-02-07T03:48:40.020Z,8.23
2023-02-07T03:53:45.307Z,5.43
2023-02-07T03:58:49.107Z,4.40
2023-02-07T04:03:52.748Z,6.35
2023-02-07T04:08:58.267Z,6.95
2023-02-07T04:14:01.893Z,5.43
2023-02-07T04:19:05.504Z,7.43
2023-02-07T04:24:10.844Z,5.07
2023-02-07T04:29:14.497Z,3.80
2023-02-07T04:34:18.135Z,5.88
2023-02-07T04:39:23.451Z,3.53
2023-02-07T04:44:27.304Z,5.70
2023-02-07T04:49:33.099Z,4.35
2023-02-07T04:54:39.515Z,3.25
2023-02-07T04:59:43.173Z,3.58
2023-02-07T05:04:46.835Z,4.15
2023-02-07T05:09:52.149Z,4.35
2023-02-07T05:14:56.954Z,3.55
2023-02-07T05:20:01.703Z,4.50
2023-02-07T05:25:07.405Z,4.22
2023-02-07T05:30:12.489Z,3.40
2023-02-07T05:35:16.202Z,6.00
2023-02-07T05:40:21.619Z,4.72
2023-02-07T05:45:25.380Z,3.50
2023-02-07T05:50:29.279Z,4.53
2023-02-07T05:55:34.942Z,5.22
2023-02-07T06:00:38.609Z,5.37
2023-02-07T06:05:42.240Z,3.80
2023-02-07T06:10:49.356Z,4.05
2023-02-07T06:15:52.997Z,3.75
2023-02-07T06:20:56.617Z,5.22
2023-02-07T06:26:01.912Z,3.85
2023-02-07T06:31:05.929Z,6.95
2023-02-07T06:36:10.160Z,3.53
2023-02-07T06:41:15.463Z,4.85
2023-02-07T06:46:19.159Z,4.43
2023-02-07T06:51:23.192Z,3.53
2023-02-07T06:56:28.480Z,6.45
2023-02-07T07:01:32.156Z,4.88
2023-02-07T07:06:35.848Z,5.93
2023-02-07T07:11:41.171Z,4.22
2023-02-07T07:16:44.791Z,4.03
2023-02-07T07:21:48.409Z,6.45
2023-02-07T07:26:53.847Z,3.85
2023-02-07T07:31:57.505Z,3.97
2023-02-07T07:37:01.132Z,4.15
2023-02-07T07:42:06.658Z,5.75
2023-02-07T07:47:10.328Z,4.80
2023-02-07T07:52:14.145Z,4.65
2023-02-07T07:57:21.381Z,5.43
2023-02-07T08:02:25.143Z,3.67
2023-02-07T08:07:29.496Z,3.72
2023-02-07T08:12:34.889Z,6.03
2023-02-07T08:17:38.528Z,3.58
2023-02-07T08:22:42.735Z,4.35
2023-02-07T08:27:48.040Z,3.95
2023-02-07T08:32:51.636Z,3.55
2023-02-07T08:37:55.940Z,7.03
2023-02-07T08:43:01.594Z,4.88
2023-02-07T08:48:05.390Z,4.77
2023-02-07T08:53:09.113Z,3.88
2023-02-07T08:58:14.667Z,5.45
2023-02-07T09:03:18.315Z,5.33
2023-02-07T09:08:22.703Z,6.20
2023-02-07T09:13:29.176Z,5.10
2023-02-07T09:23:35.725Z,3.67
2023-02-07T09:28:40.999Z,4.00
2023-02-07T09:33:44.801Z,2.97
2023-02-07T09:38:48.857Z,3.50
2023-02-07T09:44:04.177Z,2.92
2023-02-07T09:49:13.061Z,3.72
2023-02-07T09:54:23.664Z,5.55
2023-02-07T09:59:38.948Z,5.03
2023-02-07T10:04:46.987Z,3.22
2023-02-07T10:09:50.625Z,4.43
2023-02-07T10:15:11.934Z,3.15
2023-02-07T10:20:31.207Z,2.88
2023-02-07T10:25:43.598Z,1.90
2023-02-07T10:30:53.773Z,4.40
2023-02-07T10:35:58.474Z,2.15
2023-02-07T10:41:07.700Z,5.15
2023-02-07T10:46:16.450Z,5.30
2023-02-07T10:51:28.814Z,2.75
2023-02-07T10:56:34.811Z,2.35
2023-02-07T11:01:40.159Z,5.07
2023-02-07T11:06:43.915Z,4.00
2023-02-07T11:11:50.559Z,5.32
2023-02-07T11:16:57.591Z,3.03
2023-02-07T11:22:10.654Z,2.60
2023-02-07T11:27:16.764Z,3.35
2023-02-07T11:32:26.004Z,2.55
2023-02-07T11:37:32.037Z,2.67
2023-02-07T11:42:37.127Z,2.58
2023-02-07T11:47:45.495Z,3.92
2023-02-07T11:52:56.080Z,3.00
2023-02-07T11:58:00.920Z,1.98
2023-02-07T12:03:08.379Z,3.30
2023-02-07T12:08:16.247Z,3.17
2023-02-07T12:13:23.134Z,5.00
2023-02-07T12:18:32.148Z,2.95
2023-02-07T12:23:43.754Z,2.45
2023-02-07T12:29:03.954Z,1.98
2023-02-07T12:34:20.651Z,3.45
2023-02-07T12:39:34.539Z,5.38
2023-02-07T12:44:43.528Z,3.63
2023-02-07T12:50:08.978Z,3.85
2023-02-07T12:55:21.472Z,2.53
2023-02-07T13:00:32.379Z,5.15
2023-02-07T13:06:03.839Z,3.03
2023-02-07T13:11:20.974Z,4.65
2023-02-07T13:16:35.393Z,3.50
2023-02-07T13:21:47.262Z,3.65
2023-02-07T13:26:55.339Z,3.30
2023-02-07T13:32:03.693Z,5.95
2023-02-07T13:37:17.317Z,4.32
2023-02-07T13:42:29.273Z,3.28
2023-02-07T13:47:48.695Z,4.00
2023-02-07T13:53:03.739Z,3.50
2023-02-07T13:58:45.582Z,4.68
2023-02-07T14:04:02.964Z,3.15
2023-02-07T14:09:17.787Z,6.25
2023-02-07T14:14:27.444Z,4.50
2023-02-07T14:19:53.298Z,5.05
2023-02-07T14:25:21.677Z,3.95
2023-02-07T14:30:30.109Z,3.90
2023-02-07T14:35:36.523Z,2.95
2023-02-07T14:41:09.481Z,4.28
2023-02-07T14:46:16.938Z,4.65
2023-02-07T14:56:42.737Z,4.15
2023-02-07T15:01:46.447Z,3.72
2023-02-07T15:06:50.755Z,4.05
2023-02-07T15:12:13.005Z,4.53
2023-02-07T15:17:28.891Z,5.10
2023-02-07T15:22:37.127Z,4.90
2023-02-07T15:27:42.419Z,4.22
2023-02-07T15:32:46.481Z,3.88
2023-02-07T15:37:50.394Z,5.88
2023-02-07T15:42:57.181Z,5.50
2023-02-07T15:48:02.465Z,4.30
2023-02-07T15:53:07.492Z,3.85
2023-02-07T15:58:22.006Z,3.97
2023-02-07T16:03:30.437Z,5.47
2023-02-07T16:08:38.611Z,4.00
2023-02-07T16:13:47.978Z,6.72
2023-02-07T16:18:51.632Z,6.32
2023-02-07T16:24:01.721Z,4.97
2023-02-07T16:29:08.134Z,6.88
2023-02-07T16:39:16.325Z,5.38
2023-02-07T16:44:24.591Z,5.80
2023-02-07T16:49:31.322Z,5.10
2023-02-07T16:54:34.930Z,6.13
2023-02-07T16:59:40.954Z,7.47
2023-02-07T17:04:44.608Z,5.22
2023-02-07T17:09:48.304Z,5.88
2023-02-07T17:14:54.630Z,5.28
2023-02-07T17:25:01.107Z,11.00
2023-02-07T17:30:16.844Z,8.70
2023-02-07T17:35:20.784Z,8.20
2023-02-07T17:40:30.226Z,8.10
2023-02-07T17:45:36.947Z,12.82
2023-02-07T17:50:41.724Z,14.82
2023-02-07T17:55:46.213Z,15.88
2023-02-07T18:00:51.696Z,18.05
2023-02-07T18:05:55.377Z,14.77
2023-02-07T18:10:59.024Z,20.80
2023-02-07T18:16:04.472Z,11.25
2023-02-07T18:21:08.360Z,14.10
2023-02-07T18:26:12.843Z,13.65
2023-02-07T18:31:20.446Z,10.48
2023-02-07T18:36:25.365Z,13.00
2023-02-07T18:41:28.985Z,16.52
2023-02-07T18:46:34.317Z,9.63
2023-02-07T18:51:38.940Z,10.73
2023-02-07T18:56:42.606Z,12.35
2023-02-07T19:01:48.656Z,7.88
2023-02-07T19:11:56.273Z,6.03
2023-02-07T19:17:02.010Z,4.45
2023-02-07T19:22:05.637Z,5.25
2023-02-07T19:27:10.268Z,6.22
2023-02-07T19:32:15.595Z,4.45
2023-02-07T19:37:19.239Z,5.43
2023-02-07T19:42:22.853Z,3.78
2023-02-07T19:47:29.135Z,4.45
2023-02-07T19:52:33.321Z,6.15
2023-02-07T19:57:37.080Z,8.52
2023-02-07T20:02:43.337Z,5.63
2023-02-07T20:07:46.941Z,4.78
2023-02-07T20:12:50.539Z,4.63
2023-02-07T20:17:55.817Z,3.85
2023-02-07T20:22:59.458Z,3.73
2023-02-07T20:28:03.189Z,3.92
2023-02-07T20:33:08.495Z,4.72
2023-02-07T20:38:12.193Z,6.50
2023-02-07T20:43:15.851Z,3.40
2023-02-07T20:48:21.113Z,4.97
2023-02-07T20:53:24.730Z,4.83
2023-02-07T20:58:28.311Z,4.88
2023-02-07T21:03:33.728Z,3.95
2023-02-07T21:08:38.062Z,4.07
2023-02-07T21:13:42.030Z,2.95
2023-02-07T21:18:47.931Z,4.47
2023-02-07T21:23:51.807Z,5.30
2023-02-07T21:28:58.946Z,3.60
2023-02-07T21:34:04.438Z,3.72
2023-02-07T21:39:09.321Z,5.45
2023-02-07T21:44:14.943Z,8.32
2023-02-07T21:49:20.901Z,5.78
2023-02-07T21:54:24.680Z,3.67
2023-02-07T21:59:28.295Z,4.22
2023-02-07T22:04:33.587Z,5.55
2023-02-07T22:09:37.236Z,3.83
2023-02-07T22:14:41.053Z,4.85
2023-02-07T22:19:46.482Z,6.28
2023-02-07T22:24:50.564Z,6.07
2023-02-07T22:29:54.321Z,5.65
2023-02-07T22:34:59.643Z,5.18
2023-02-07T22:40:03.253Z,6.07
2023-02-07T22:45:07.376Z,10.80
2023-02-07T22:50:12.800Z,5.80
2023-02-07T22:55:16.555Z,6.47
2023-02-07T23:00:20.805Z,6.05
2023-02-07T23:05:26.089Z,4.25
2023-02-07T23:10:29.748Z,4.28
2023-02-07T23:15:33.421Z,5.53
2023-02-07T23:20:39.269Z,6.38
2023-02-07T23:25:44.155Z,5.60
2023-02-07T23:30:47.871Z,5.20
2023-02-07T23:35:53.193Z,6.93
2023-02-07T23:40:56.835Z,7.17
2023-02-07T23:46:00.463Z,8.35
2023-02-07T23:51:06.572Z,6.03
2023-02-07T23:56:14.172Z,5.70
